sensor_id;sensor_type;location;lat;lon;timestamp;pressure;altitude;pressure_sealevel;temperature;humidity
7940;BME280;4015;48.888;9.226;2024-02-26T00:01:14;157260.28;;;8.02;73.56
7940;BME280;4015;48.888;9.226;2024-02-26T00:03:40;157260.28;;;8.02;73.89
7940;BME280;4015;48.888;9.226;2024-02-26T00:06:07;157260.28;;;8.02;72.73
7940;BME280;4015;48.888;9.226;2024-02-26T00:08:32;157251.38;;;7.98;72.36
7940;BME280;4015;48.888;9.226;2024-02-26T00:10:57;157266.66;;;8.04;72.38
7940;BME280;4015;48.888;9.226;2024-02-26T00:13:23;157271.78;;;8.06;72.52
7940;BME280;4015;48.888;9.226;2024-02-26T00:15:48;157273.06;;;8.07;73.08
7940;BME280;4015;48.888;9.226;2024-02-26T00:18:13;157264.09;;;8.03;72.18
7940;BME280;4015;48.888;9.226;2024-02-26T00:20:39;157261.56;;;8.02;71.70
7940;BME280;4015;48.888;9.226;2024-02-26T00:23:05;157257.75;;;8.01;73.92
7940;BME280;4015;48.888;9.226;2024-02-26T00:25:30;157269.25;;;8.05;71.18
7940;BME280;4015;48.888;9.226;2024-02-26T00:27:55;157261.56;;;8.02;74.26
7940;BME280;4015;48.888;9.226;2024-02-26T00:30:21;157279.41;;;8.09;71.25
7940;BME280;4015;48.888;9.226;2024-02-26T00:32:47;157271.78;;;8.06;70.68
7940;BME280;4015;48.888;9.226;2024-02-26T00:35:13;157266.66;;;8.04;71.85
7940;BME280;4015;48.888;9.226;2024-02-26T00:37:39;157252.66;;;7.99;71.22
7940;BME280;4015;48.888;9.226;2024-02-26T00:40:05;157253.94;;;7.99;70.65
7940;BME280;4015;48.888;9.226;2024-02-26T00:42:31;157276.88;;;8.08;70.50
7940;BME280;4015;48.888;9.226;2024-02-26T00:44:56;157285.81;;;8.12;70.62
7940;BME280;4015;48.888;9.226;2024-02-26T00:47:22;157303.66;;;8.19;69.82
7940;BME280;4015;48.888;9.226;2024-02-26T00:49:47;157316.44;;;8.24;69.61
7940;BME280;4015;48.888;9.226;2024-02-26T00:52:12;157310.03;;;8.22;68.35
7940;BME280;4015;48.888;9.226;2024-02-26T00:54:38;157275.59;;;8.08;71.27
7940;BME280;4015;48.888;9.226;2024-02-26T00:57:03;157287.09;;;8.13;70.37
7940;BME280;4015;48.888;9.226;2024-02-26T00:59:28;157288.34;;;8.13;71.41
7940;BME280;4015;48.888;9.226;2024-02-26T01:01:54;157260.28;;;8.02;72.71
7940;BME280;4015;48.888;9.226;2024-02-26T01:04:19;157242.44;;;7.95;72.02
7940;BME280;4015;48.888;9.226;2024-02-26T01:06:44;157241.19;;;7.94;73.94
7940;BME280;4015;48.888;9.226;2024-02-26T01:09:10;157256.47;;;8.00;74.66
7940;BME280;4015;48.888;9.226;2024-02-26T01:11:35;157256.47;;;8.00;74.52
7940;BME280;4015;48.888;9.226;2024-02-26T01:14:01;157260.28;;;8.02;72.90
7940;BME280;4015;48.888;9.226;2024-02-26T01:16:27;157253.94;;;7.99;73.33
7940;BME280;4015;48.888;9.226;2024-02-26T01:18:54;157232.22;;;7.91;72.78
7940;BME280;4015;48.888;9.226;2024-02-26T01:21:19;157242.44;;;7.95;73.60
7940;BME280;4015;48.888;9.226;2024-02-26T01:23:44;157219.47;;;7.85;74.10
7940;BME280;4015;48.888;9.226;2024-02-26T01:26:10;157242.44;;;7.95;73.27
7940;BME280;4015;48.888;9.226;2024-02-26T01:28:36;157239.91;;;7.94;74.08
7940;BME280;4015;48.888;9.226;2024-02-26T01:31:01;157214.38;;;7.83;73.09
7940;BME280;4015;48.888;9.226;2024-02-26T01:33:26;157223.31;;;7.87;72.21
7940;BME280;4015;48.888;9.226;2024-02-26T01:35:52;157232.22;;;7.91;73.11
7940;BME280;4015;48.888;9.226;2024-02-26T01:38:18;157248.81;;;7.97;73.15
7940;BME280;4015;48.888;9.226;2024-02-26T01:40:43;157312.56;;;8.23;69.42
7940;BME280;4015;48.888;9.226;2024-02-26T01:43:09;157329.13;;;8.29;69.25
7940;BME280;4015;48.888;9.226;2024-02-26T01:45:34;157289.63;;;8.14;68.18
7940;BME280;4015;48.888;9.226;2024-02-26T01:48:00;157298.59;;;8.17;68.13
7940;BME280;4015;48.888;9.226;2024-02-26T01:50:26;157311.28;;;8.22;67.75
7940;BME280;4015;48.888;9.226;2024-02-26T01:52:52;157324.06;;;8.27;69.25
7940;BME280;4015;48.888;9.226;2024-02-26T01:55:19;157296.00;;;8.16;68.86
7940;BME280;4015;48.888;9.226;2024-02-26T01:57:46;157285.81;;;8.12;70.85
7940;BME280;4015;48.888;9.226;2024-02-26T02:00:14;157322.78;;;8.27;69.16
7940;BME280;4015;48.888;9.226;2024-02-26T02:02:40;157278.13;;;8.09;71.29
7940;BME280;4015;48.888;9.226;2024-02-26T02:05:07;157278.13;;;8.09;71.99
7940;BME280;4015;48.888;9.226;2024-02-26T02:07:34;157267.97;;;8.05;73.13
7940;BME280;4015;48.888;9.226;2024-02-26T02:10:00;157214.38;;;7.83;73.73
7940;BME280;4015;48.888;9.226;2024-02-26T02:12:26;157246.25;;;7.96;72.65
7940;BME280;4015;48.888;9.226;2024-02-26T02:14:52;157248.81;;;7.97;73.17
7940;BME280;4015;48.888;9.226;2024-02-26T02:17:17;157269.25;;;8.05;73.87
7940;BME280;4015;48.888;9.226;2024-02-26T02:19:42;157238.63;;;7.93;72.61
7940;BME280;4015;48.888;9.226;2024-02-26T02:22:08;157225.88;;;7.88;72.83
7940;BME280;4015;48.888;9.226;2024-02-26T02:24:33;157174.88;;;7.68;70.40
7940;BME280;4015;48.888;9.226;2024-02-26T02:26:59;157190.19;;;7.74;70.94
7940;BME280;4015;48.888;9.226;2024-02-26T02:29:24;157201.63;;;7.78;70.72
7940;BME280;4015;48.888;9.226;2024-02-26T02:31:50;157227.16;;;7.89;69.75
7940;BME280;4015;48.888;9.226;2024-02-26T02:34:15;157259.03;;;8.01;69.37
7940;BME280;4015;48.888;9.226;2024-02-26T02:36:54;157237.34;;;7.93;71.03
7940;BME280;4015;48.888;9.226;2024-02-26T02:39:20;157252.66;;;7.99;69.92
7940;BME280;4015;48.888;9.226;2024-02-26T02:41:46;157274.31;;;8.07;71.24
7940;BME280;4015;48.888;9.226;2024-02-26T02:44:11;157270.50;;;8.06;71.78
7940;BME280;4015;48.888;9.226;2024-02-26T02:46:37;157256.47;;;8.00;72.62
7940;BME280;4015;48.888;9.226;2024-02-26T02:49:02;157266.66;;;8.04;69.62
7940;BME280;4015;48.888;9.226;2024-02-26T02:51:28;157262.84;;;8.03;69.73
7940;BME280;4015;48.888;9.226;2024-02-26T02:53:53;157296.00;;;8.16;67.66
7940;BME280;4015;48.888;9.226;2024-02-26T02:56:18;157297.25;;;8.17;69.73
7940;BME280;4015;48.888;9.226;2024-02-26T02:58:44;157275.59;;;8.08;70.70
7940;BME280;4015;48.888;9.226;2024-02-26T03:01:09;157243.72;;;7.95;71.61
7940;BME280;4015;48.888;9.226;2024-02-26T03:03:35;157232.22;;;7.91;69.46
7940;BME280;4015;48.888;9.226;2024-02-26T03:06:02;157262.84;;;8.03;69.68
7940;BME280;4015;48.888;9.226;2024-02-26T03:08:28;157284.53;;;8.11;70.55
7940;BME280;4015;48.888;9.226;2024-02-26T03:10:54;157288.34;;;8.13;71.86
7940;BME280;4015;48.888;9.226;2024-02-26T03:13:19;157284.53;;;8.11;71.58
7940;BME280;4015;48.888;9.226;2024-02-26T03:15:45;157270.50;;;8.06;70.63
7940;BME280;4015;48.888;9.226;2024-02-26T03:18:10;157270.50;;;8.06;73.46
7940;BME280;4015;48.888;9.226;2024-02-26T03:20:35;157252.66;;;7.99;72.24
7940;BME280;4015;48.888;9.226;2024-02-26T03:23:02;157269.25;;;8.05;73.18
7940;BME280;4015;48.888;9.226;2024-02-26T03:25:27;157265.38;;;8.04;76.10
7940;BME280;4015;48.888;9.226;2024-02-26T03:27:53;157260.28;;;8.02;77.05
7940;BME280;4015;48.888;9.226;2024-02-26T03:30:18;157262.84;;;8.03;76.93
7940;BME280;4015;48.888;9.226;2024-02-26T03:32:43;157229.69;;;7.90;77.24
7940;BME280;4015;48.888;9.226;2024-02-26T03:35:09;157264.09;;;8.03;75.76
7940;BME280;4015;48.888;9.226;2024-02-26T03:37:34;157250.06;;;7.98;73.75
7940;BME280;4015;48.888;9.226;2024-02-26T03:39:59;157247.53;;;7.97;72.78
7940;BME280;4015;48.888;9.226;2024-02-26T03:42:26;157256.47;;;8.00;75.06
7940;BME280;4015;48.888;9.226;2024-02-26T03:44:51;157266.66;;;8.04;74.06
7940;BME280;4015;48.888;9.226;2024-02-26T03:47:17;157237.34;;;7.93;75.23
7940;BME280;4015;48.888;9.226;2024-02-26T03:49:42;157241.19;;;7.94;75.37
7940;BME280;4015;48.888;9.226;2024-02-26T03:52:07;157257.75;;;8.01;75.10
7940;BME280;4015;48.888;9.226;2024-02-26T03:54:33;157261.56;;;8.02;74.28
7940;BME280;4015;48.888;9.226;2024-02-26T03:56:58;157284.53;;;8.11;73.67
7940;BME280;4015;48.888;9.226;2024-02-26T03:59:23;157266.66;;;8.04;75.03
7940;BME280;4015;48.888;9.226;2024-02-26T04:01:50;157233.50;;;7.91;75.43
7940;BME280;4015;48.888;9.226;2024-02-26T04:04:16;157256.47;;;8.00;73.56
7940;BME280;4015;48.888;9.226;2024-02-26T04:06:47;157266.66;;;8.04;73.05
7940;BME280;4015;48.888;9.226;2024-02-26T04:09:14;157242.44;;;7.95;73.45
7940;BME280;4015;48.888;9.226;2024-02-26T04:11:39;157243.72;;;7.95;72.82
7940;BME280;4015;48.888;9.226;2024-02-26T04:14:05;157245.00;;;7.96;73.08
7940;BME280;4015;48.888;9.226;2024-02-26T04:16:33;157250.06;;;7.98;73.29
7940;BME280;4015;48.888;9.226;2024-02-26T04:18:59;157255.22;;;8.00;72.63
7940;BME280;4015;48.888;9.226;2024-02-26T04:21:24;157239.91;;;7.94;72.09
7940;BME280;4015;48.888;9.226;2024-02-26T04:23:49;157233.50;;;7.91;72.43
7940;BME280;4015;48.888;9.226;2024-02-26T04:26:14;157245.00;;;7.96;74.46
7940;BME280;4015;48.888;9.226;2024-02-26T04:28:41;157236.09;;;7.92;74.79
7940;BME280;4015;48.888;9.226;2024-02-26T04:31:06;157205.47;;;7.80;74.11
7940;BME280;4015;48.888;9.226;2024-02-26T04:33:34;157204.22;;;7.79;74.35
7940;BME280;4015;48.888;9.226;2024-02-26T04:35:59;157199.09;;;7.77;73.89
7940;BME280;4015;48.888;9.226;2024-02-26T04:38:25;157197.81;;;7.77;73.47
7940;BME280;4015;48.888;9.226;2024-02-26T04:40:50;157197.81;;;7.77;72.52
7940;BME280;4015;48.888;9.226;2024-02-26T04:43:15;157205.47;;;7.80;72.46
7940;BME280;4015;48.888;9.226;2024-02-26T04:45:42;157168.47;;;7.65;72.81
7940;BME280;4015;48.888;9.226;2024-02-26T04:48:08;157178.69;;;7.69;72.75
7940;BME280;4015;48.888;9.226;2024-02-26T04:50:33;157172.28;;;7.67;72.68
7940;BME280;4015;48.888;9.226;2024-02-26T04:52:59;157195.28;;;7.76;72.48
7940;BME280;4015;48.888;9.226;2024-02-26T04:55:24;157197.81;;;7.77;72.00
7940;BME280;4015;48.888;9.226;2024-02-26T04:57:49;157185.06;;;7.72;72.14
7940;BME280;4015;48.888;9.226;2024-02-26T05:00:15;157173.63;;;7.67;72.55
7940;BME280;4015;48.888;9.226;2024-02-26T05:02:40;157183.78;;;7.71;73.23
7940;BME280;4015;48.888;9.226;2024-02-26T05:05:06;157191.47;;;7.74;72.50
7940;BME280;4015;48.888;9.226;2024-02-26T05:07:31;157183.78;;;7.71;75.37
7940;BME280;4015;48.888;9.226;2024-02-26T05:09:57;157188.91;;;7.73;75.63
7940;BME280;4015;48.888;9.226;2024-02-26T05:12:22;157176.16;;;7.68;75.61
7940;BME280;4015;48.888;9.226;2024-02-26T05:14:48;157144.28;;;7.55;75.32
7940;BME280;4015;48.888;9.226;2024-02-26T05:17:13;157181.25;;;7.70;73.67
7940;BME280;4015;48.888;9.226;2024-02-26T05:19:38;157128.97;;;7.49;75.89
7940;BME280;4015;48.888;9.226;2024-02-26T05:22:04;157120.03;;;7.46;75.87
7940;BME280;4015;48.888;9.226;2024-02-26T05:24:29;157144.28;;;7.55;76.81
7940;BME280;4015;48.888;9.226;2024-02-26T05:26:54;157123.84;;;7.47;76.54
7940;BME280;4015;48.888;9.226;2024-02-26T05:29:20;157126.44;;;7.48;77.34
7940;BME280;4015;48.888;9.226;2024-02-26T05:31:45;157163.41;;;7.63;77.56
7940;BME280;4015;48.888;9.226;2024-02-26T05:34:11;157143.00;;;7.55;75.63
7940;BME280;4015;48.888;9.226;2024-02-26T05:36:36;157148.09;;;7.57;77.04
7940;BME280;4015;48.888;9.226;2024-02-26T05:39:02;157145.56;;;7.56;78.26
7940;BME280;4015;48.888;9.226;2024-02-26T05:41:29;157162.13;;;7.63;75.18
7940;BME280;4015;48.888;9.226;2024-02-26T05:43:54;157164.66;;;7.64;74.40
7940;BME280;4015;48.888;9.226;2024-02-26T05:46:20;157197.81;;;7.77;74.94
7940;BME280;4015;48.888;9.226;2024-02-26T05:48:47;157182.50;;;7.71;76.76
7940;BME280;4015;48.888;9.226;2024-02-26T05:51:13;157185.06;;;7.72;74.67
7940;BME280;4015;48.888;9.226;2024-02-26T05:53:38;157165.94;;;7.64;74.38
7940;BME280;4015;48.888;9.226;2024-02-26T05:56:03;157153.19;;;7.59;73.11
7940;BME280;4015;48.888;9.226;2024-02-26T05:58:29;157160.84;;;7.62;73.74
7940;BME280;4015;48.888;9.226;2024-02-26T06:00:54;157157.03;;;7.61;74.02
7940;BME280;4015;48.888;9.226;2024-02-26T06:03:19;157168.47;;;7.65;75.28
7940;BME280;4015;48.888;9.226;2024-02-26T06:05:46;157190.19;;;7.74;76.66
7940;BME280;4015;48.888;9.226;2024-02-26T06:08:11;157199.09;;;7.77;77.09
7940;BME280;4015;48.888;9.226;2024-02-26T06:10:36;157176.16;;;7.68;78.38
7940;BME280;4015;48.888;9.226;2024-02-26T06:13:02;157191.47;;;7.74;77.02
7940;BME280;4015;48.888;9.226;2024-02-26T06:15:27;157169.75;;;7.66;78.68
7940;BME280;4015;48.888;9.226;2024-02-26T06:17:52;157194.00;;;7.75;78.64
7940;BME280;4015;48.888;9.226;2024-02-26T06:20:17;157222.06;;;7.87;78.44
7940;BME280;4015;48.888;9.226;2024-02-26T06:22:43;157206.75;;;7.80;80.17
7940;BME280;4015;48.888;9.226;2024-02-26T06:25:08;157238.63;;;7.93;77.92
7940;BME280;4015;48.888;9.226;2024-02-26T06:27:34;157223.31;;;7.87;80.57
7940;BME280;4015;48.888;9.226;2024-02-26T06:29:59;157183.78;;;7.71;82.95
7940;BME280;4015;48.888;9.226;2024-02-26T06:32:25;157167.22;;;7.65;84.14
7940;BME280;4015;48.888;9.226;2024-02-26T06:34:52;157181.25;;;7.70;84.19
7940;BME280;4015;48.888;9.226;2024-02-26T06:37:18;157178.69;;;7.69;84.18
7940;BME280;4015;48.888;9.226;2024-02-26T06:39:43;157177.44;;;7.69;85.92
7940;BME280;4015;48.888;9.226;2024-02-26T06:42:08;157200.34;;;7.78;84.68
7940;BME280;4015;48.888;9.226;2024-02-26T06:44:34;157151.91;;;7.58;84.83
7940;BME280;4015;48.888;9.226;2024-02-26T06:46:59;157165.94;;;7.64;86.04
7940;BME280;4015;48.888;9.226;2024-02-26T06:49:25;157168.47;;;7.65;84.88
7940;BME280;4015;48.888;9.226;2024-02-26T06:51:50;157157.03;;;7.61;84.71
7940;BME280;4015;48.888;9.226;2024-02-26T06:54:16;157158.31;;;7.61;84.78
7940;BME280;4015;48.888;9.226;2024-02-26T06:56:41;157213.13;;;7.83;84.56
7940;BME280;4015;48.888;9.226;2024-02-26T06:59:06;157211.84;;;7.82;83.56
7940;BME280;4015;48.888;9.226;2024-02-26T07:01:32;157201.63;;;7.78;84.53
7940;BME280;4015;48.888;9.226;2024-02-26T07:03:57;157229.69;;;7.90;83.57
7940;BME280;4015;48.888;9.226;2024-02-26T07:06:22;157241.19;;;7.94;83.55
7940;BME280;4015;48.888;9.226;2024-02-26T07:08:47;157270.50;;;8.06;82.44
7940;BME280;4015;48.888;9.226;2024-02-26T07:11:13;157269.25;;;8.05;81.65
7940;BME280;4015;48.888;9.226;2024-02-26T07:13:38;157288.34;;;8.13;81.70
7940;BME280;4015;48.888;9.226;2024-02-26T07:16:04;157279.41;;;8.09;79.47
7940;BME280;4015;48.888;9.226;2024-02-26T07:18:29;157299.84;;;8.18;80.93
7940;BME280;4015;48.888;9.226;2024-02-26T07:20:55;157303.66;;;8.19;81.18
7940;BME280;4015;48.888;9.226;2024-02-26T07:23:21;157308.75;;;8.21;79.51
7940;BME280;4015;48.888;9.226;2024-02-26T07:25:46;157322.78;;;8.27;80.03
7940;BME280;4015;48.888;9.226;2024-02-26T07:28:14;157315.16;;;8.24;79.77
7940;BME280;4015;48.888;9.226;2024-02-26T07:30:39;157310.03;;;8.22;77.80
7940;BME280;4015;48.888;9.226;2024-02-26T07:33:05;157325.34;;;8.28;78.62
7940;BME280;4015;48.888;9.226;2024-02-26T07:35:30;157310.03;;;8.22;80.28
7940;BME280;4015;48.888;9.226;2024-02-26T07:37:57;157308.75;;;8.21;79.95
7940;BME280;4015;48.888;9.226;2024-02-26T07:40:23;157301.13;;;8.18;79.42
7940;BME280;4015;48.888;9.226;2024-02-26T07:42:48;157304.94;;;8.20;80.97
7940;BME280;4015;48.888;9.226;2024-02-26T07:45:13;157304.94;;;8.20;79.03
7940;BME280;4015;48.888;9.226;2024-02-26T07:47:40;157317.69;;;8.25;80.60
7940;BME280;4015;48.888;9.226;2024-02-26T07:50:07;157308.75;;;8.21;76.11
7940;BME280;4015;48.888;9.226;2024-02-26T07:52:33;157344.50;;;8.35;78.74
7940;BME280;4015;48.888;9.226;2024-02-26T07:54:59;157352.19;;;8.38;79.61
7940;BME280;4015;48.888;9.226;2024-02-26T07:57:24;157391.69;;;8.54;79.86
7940;BME280;4015;48.888;9.226;2024-02-26T07:59:49;157394.28;;;8.55;78.51
7940;BME280;4015;48.888;9.226;2024-02-26T08:02:16;157412.16;;;8.62;78.21
7940;BME280;4015;48.888;9.226;2024-02-26T08:04:41;157390.41;;;8.54;80.32
7940;BME280;4015;48.888;9.226;2024-02-26T08:07:06;157417.22;;;8.64;80.84
7940;BME280;4015;48.888;9.226;2024-02-26T08:09:32;157446.59;;;8.76;80.43
7940;BME280;4015;48.888;9.226;2024-02-26T08:11:57;157456.81;;;8.80;79.42
7940;BME280;4015;48.888;9.226;2024-02-26T08:14:22;157464.44;;;8.83;79.70
7940;BME280;4015;48.888;9.226;2024-02-26T08:16:48;157486.09;;;8.92;81.28
7940;BME280;4015;48.888;9.226;2024-02-26T08:19:14;157447.84;;;8.77;79.63
7940;BME280;4015;48.888;9.226;2024-02-26T08:21:40;157482.28;;;8.90;80.50
7940;BME280;4015;48.888;9.226;2024-02-26T08:24:05;157521.88;;;9.06;79.30
7940;BME280;4015;48.888;9.226;2024-02-26T08:26:31;157518.00;;;9.05;80.10
7940;BME280;4015;48.888;9.226;2024-02-26T08:28:56;157539.72;;;9.13;81.22
7940;BME280;4015;48.888;9.226;2024-02-26T08:31:23;157521.88;;;9.06;82.05
7940;BME280;4015;48.888;9.226;2024-02-26T08:33:49;157477.19;;;8.88;81.14
7940;BME280;4015;48.888;9.226;2024-02-26T08:36:14;157492.50;;;8.95;81.84
7940;BME280;4015;48.888;9.226;2024-02-26T08:38:39;157498.88;;;8.97;82.44
7940;BME280;4015;48.888;9.226;2024-02-26T08:41:05;157506.56;;;9.00;80.46
7940;BME280;4015;48.888;9.226;2024-02-26T08:43:30;157479.75;;;8.89;82.28
7940;BME280;4015;48.888;9.226;2024-02-26T08:45:57;157547.38;;;9.16;81.26
7940;BME280;4015;48.888;9.226;2024-02-26T08:48:22;157535.91;;;9.12;80.69
7940;BME280;4015;48.888;9.226;2024-02-26T08:50:48;157515.47;;;9.04;80.74
7940;BME280;4015;48.888;9.226;2024-02-26T08:53:14;157498.88;;;8.97;81.26
7940;BME280;4015;48.888;9.226;2024-02-26T08:55:40;157511.66;;;9.02;80.19
7940;BME280;4015;48.888;9.226;2024-02-26T08:58:05;157552.50;;;9.18;80.75
7940;BME280;4015;48.888;9.226;2024-02-26T09:00:30;157585.69;;;9.32;80.59
7940;BME280;4015;48.888;9.226;2024-02-26T09:02:56;157611.19;;;9.42;79.84
7940;BME280;4015;48.888;9.226;2024-02-26T09:05:21;157664.81;;;9.63;79.81
7940;BME280;4015;48.888;9.226;2024-02-26T09:07:47;157646.97;;;9.56;80.47
7940;BME280;4015;48.888;9.226;2024-02-26T09:10:12;157671.19;;;9.66;80.65
7940;BME280;4015;48.888;9.226;2024-02-26T09:12:38;157668.63;;;9.65;78.21
7940;BME280;4015;48.888;9.226;2024-02-26T09:15:07;157663.53;;;9.63;78.69
7940;BME280;4015;48.888;9.226;2024-02-26T09:17:32;157675.00;;;9.67;77.57
7940;BME280;4015;48.888;9.226;2024-02-26T09:19:58;157699.28;;;9.77;78.92
7940;BME280;4015;48.888;9.226;2024-02-26T09:22:23;157729.94;;;9.89;78.44
7940;BME280;4015;48.888;9.226;2024-02-26T09:24:49;157764.38;;;10.03;77.52
7940;BME280;4015;48.888;9.226;2024-02-26T09:27:16;157793.78;;;10.15;77.78
7940;BME280;4015;48.888;9.226;2024-02-26T09:29:42;157791.22;;;10.14;77.95
7940;BME280;4015;48.888;9.226;2024-02-26T09:32:07;157801.41;;;10.18;79.30
7940;BME280;4015;48.888;9.226;2024-02-26T09:34:33;157732.47;;;9.90;80.05
7940;BME280;4015;48.888;9.226;2024-02-26T09:36:59;157791.22;;;10.14;79.19
7940;BME280;4015;48.888;9.226;2024-02-26T09:39:24;157853.84;;;10.39;77.92
7940;BME280;4015;48.888;9.226;2024-02-26T09:41:49;157879.38;;;10.49;77.89
7940;BME280;4015;48.888;9.226;2024-02-26T09:44:24;157873.00;;;10.46;77.52
7940;BME280;4015;48.888;9.226;2024-02-26T09:46:52;157873.00;;;10.46;78.13
7940;BME280;4015;48.888;9.226;2024-02-26T09:49:19;157866.63;;;10.44;77.63
7940;BME280;4015;48.888;9.226;2024-02-26T09:51:49;157857.66;;;10.40;77.76
7940;BME280;4015;48.888;9.226;2024-02-26T09:54:16;157852.56;;;10.38;79.57
7940;BME280;4015;48.888;9.226;2024-02-26T09:56:43;157898.56;;;10.57;78.73
7940;BME280;4015;48.888;9.226;2024-02-26T09:59:15;157895.97;;;10.56;78.02
7940;BME280;4015;48.888;9.226;2024-02-26T10:01:42;157907.47;;;10.60;78.10
7940;BME280;4015;48.888;9.226;2024-02-26T10:04:08;157990.50;;;10.93;76.72
7940;BME280;4015;48.888;9.226;2024-02-26T10:06:34;158067.19;;;11.24;77.24
7940;BME280;4015;48.888;9.226;2024-02-26T10:09:01;158110.66;;;11.41;75.69
7940;BME280;4015;48.888;9.226;2024-02-26T10:11:31;158223.16;;;11.86;75.73
7940;BME280;4015;48.888;9.226;2024-02-26T10:13:57;158292.25;;;12.13;73.76
7940;BME280;4015;48.888;9.226;2024-02-26T10:16:23;158315.22;;;12.23;72.64
7940;BME280;4015;48.888;9.226;2024-02-26T10:18:50;158304.97;;;12.19;73.52
7940;BME280;4015;48.888;9.226;2024-02-26T10:21:17;158302.44;;;12.18;71.72
7940;BME280;4015;48.888;9.226;2024-02-26T10:23:45;158435.47;;;12.71;70.71
7940;BME280;4015;48.888;9.226;2024-02-26T10:26:11;158572.38;;;13.25;66.79
7940;BME280;4015;48.888;9.226;2024-02-26T10:28:39;158628.69;;;13.47;66.49
7940;BME280;4015;48.888;9.226;2024-02-26T10:31:08;158766.94;;;14.02;65.85
7940;BME280;4015;48.888;9.226;2024-02-26T10:33:35;158938.56;;;14.71;64.12
7940;BME280;4015;48.888;9.226;2024-02-26T10:36:02;158962.88;;;14.80;62.95
7940;BME280;4015;48.888;9.226;2024-02-26T10:38:29;159041.00;;;15.11;60.16
7940;BME280;4015;48.888;9.226;2024-02-26T10:40:55;159238.34;;;15.90;58.68
7940;BME280;4015;48.888;9.226;2024-02-26T10:43:20;159356.28;;;16.37;56.34
7940;BME280;4015;48.888;9.226;2024-02-26T10:45:46;159288.38;;;16.10;58.52
7940;BME280;4015;48.888;9.226;2024-02-26T10:48:13;159405.00;;;16.56;58.92
7940;BME280;4015;48.888;9.226;2024-02-26T10:50:40;159516.59;;;17.01;57.56
7940;BME280;4015;48.888;9.226;2024-02-26T10:53:21;159478.16;;;16.85;57.63
7940;BME280;4015;48.888;9.226;2024-02-26T10:56:17;159421.66;;;16.63;56.05
7940;BME280;4015;48.888;9.226;2024-02-26T10:58:46;159271.72;;;16.03;56.17
7940;BME280;4015;48.888;9.226;2024-02-26T11:01:12;159479.44;;;16.86;54.54
7940;BME280;4015;48.888;9.226;2024-02-26T11:03:38;159442.22;;;16.71;55.01
7940;BME280;4015;48.888;9.226;2024-02-26T11:06:05;159619.22;;;17.41;55.48
7940;BME280;4015;48.888;9.226;2024-02-26T11:08:32;159755.22;;;17.95;52.19
7940;BME280;4015;48.888;9.226;2024-02-26T11:10:57;159972.19;;;18.81;50.86
7940;BME280;4015;48.888;9.226;2024-02-26T11:13:27;160141.69;;;19.49;49.21
7940;BME280;4015;48.888;9.226;2024-02-26T11:15:56;160282.97;;;20.05;48.08
7940;BME280;4015;48.888;9.226;2024-02-26T11:18:23;160308.69;;;20.15;46.75
7940;BME280;4015;48.888;9.226;2024-02-26T11:20:50;160327.94;;;20.23;47.32
7940;BME280;4015;48.888;9.226;2024-02-26T11:23:16;160331.84;;;20.24;45.93
7940;BME280;4015;48.888;9.226;2024-02-26T11:25:41;160151.94;;;19.53;48.62
7940;BME280;4015;48.888;9.226;2024-02-26T11:28:15;160317.69;;;20.18;45.90
7940;BME280;4015;48.888;9.226;2024-02-26T11:30:46;160158.38;;;19.55;47.51
7940;BME280;4015;48.888;9.226;2024-02-26T11:33:13;160108.25;;;19.35;46.52
7940;BME280;4015;48.888;9.226;2024-02-26T11:35:39;159882.28;;;18.46;49.17
7940;BME280;4015;48.888;9.226;2024-02-26T11:38:05;159951.66;;;18.73;47.94
7940;BME280;4015;48.888;9.226;2024-02-26T11:40:33;159764.25;;;17.99;50.01
7940;BME280;4015;48.888;9.226;2024-02-26T11:42:59;159793.75;;;18.11;50.68
7940;BME280;4015;48.888;9.226;2024-02-26T11:48:11;159901.53;;;18.53;50.24
7940;BME280;4015;48.888;9.226;2024-02-26T11:50:39;159757.78;;;17.96;50.30
7940;BME280;4015;48.888;9.226;2024-02-26T11:53:31;159664.09;;;17.59;49.49
7940;BME280;4015;48.888;9.226;2024-02-26T11:58:48;159746.28;;;17.92;49.51
7940;BME280;4015;48.888;9.226;2024-02-26T12:01:43;160019.69;;;19.00;47.30
7940;BME280;4015;48.888;9.226;2024-02-26T12:04:16;159911.81;;;18.57;49.57
7940;BME280;4015;48.888;9.226;2024-02-26T12:06:44;159954.22;;;18.74;48.35
7940;BME280;4015;48.888;9.226;2024-02-26T12:09:10;159943.94;;;18.70;49.69
7940;BME280;4015;48.888;9.226;2024-02-26T12:11:40;159797.59;;;18.12;48.69
7940;BME280;4015;48.888;9.226;2024-02-26T12:14:07;159780.91;;;18.05;48.80
7940;BME280;4015;48.888;9.226;2024-02-26T12:16:39;159728.28;;;17.85;49.05
7940;BME280;4015;48.888;9.226;2024-02-26T12:19:06;159673.09;;;17.63;49.96
7940;BME280;4015;48.888;9.226;2024-02-26T12:21:36;159671.81;;;17.62;49.21
7940;BME280;4015;48.888;9.226;2024-02-26T12:24:14;159512.78;;;16.99;50.97
7940;BME280;4015;48.888;9.226;2024-02-26T12:26:43;159398.63;;;16.54;52.09
7940;BME280;4015;48.888;9.226;2024-02-26T12:29:08;159372.94;;;16.43;52.30
7940;BME280;4015;48.888;9.226;2024-02-26T12:31:35;159376.78;;;16.45;52.20
7940;BME280;4015;48.888;9.226;2024-02-26T12:34:04;159261.44;;;15.99;53.23
7940;BME280;4015;48.888;9.226;2024-02-26T12:36:30;159405.00;;;16.56;52.40
7940;BME280;4015;48.888;9.226;2024-02-26T12:38:55;159334.53;;;16.28;54.18
7940;BME280;4015;48.888;9.226;2024-02-26T12:41:22;159283.22;;;16.08;55.29
7940;BME280;4015;48.888;9.226;2024-02-26T12:43:48;159188.38;;;15.70;54.91
7940;BME280;4015;48.888;9.226;2024-02-26T12:46:13;159248.63;;;15.94;53.67
7940;BME280;4015;48.888;9.226;2024-02-26T12:48:42;159334.53;;;16.28;53.59
7940;BME280;4015;48.888;9.226;2024-02-26T12:51:08;159302.47;;;16.15;54.73
7940;BME280;4015;48.888;9.226;2024-02-26T12:53:35;159458.88;;;16.78;52.37
7940;BME280;4015;48.888;9.226;2024-02-26T12:56:01;159466.59;;;16.81;52.54
7940;BME280;4015;48.888;9.226;2024-02-26T12:58:27;159492.25;;;16.91;51.83
7940;BME280;4015;48.888;9.226;2024-02-26T13:00:54;159435.78;;;16.68;52.96
7940;BME280;4015;48.888;9.226;2024-02-26T13:03:21;159490.94;;;16.90;52.46
7940;BME280;4015;48.888;9.226;2024-02-26T13:05:48;159378.06;;;16.45;53.72
7940;BME280;4015;48.888;9.226;2024-02-26T13:08:20;159328.06;;;16.26;54.24
7940;BME280;4015;48.888;9.226;2024-02-26T13:10:46;159370.41;;;16.42;54.58
7940;BME280;4015;48.888;9.226;2024-02-26T13:13:15;159422.94;;;16.63;53.63
7940;BME280;4015;48.888;9.226;2024-02-26T13:15:44;159514.03;;;16.99;52.16
7940;BME280;4015;48.888;9.226;2024-02-26T13:18:13;159549.94;;;17.14;52.25
7940;BME280;4015;48.888;9.226;2024-02-26T13:20:39;159560.22;;;17.18;53.17